<?xml version="1.0" encoding="UTF-8" standalone="no" ?>
<gpx xmlns="http://www.topografix.com/GPX/1/1" xmlns:xsi="http://www.w3.org/2001/XMLSchema-instance" xsi:schemaLocation="http://www.topografix.com/GPX/1/1 http://www.topografix.com/GPX/1/1/gpx.xsd" version="1.1" creator="VisuGPX - https://www.visugpx.com">
  <metadata>
    <name>Fréjus</name>
    <desc><![CDATA[A développer,A développer,A développer,A développer,A développer,A développer,A développer,A développer.]]></desc>
  </metadata>
  <trk>
    <name><![CDATA[Untitled]]></name>
    <trkseg>
      <trkpt lat="44.94385" lon="6.56167">
        <ele>1397</ele>
        <time>2012-12-31T05:35:17Z</time>
      </trkpt>
      <trkpt lat="44.94377" lon="6.56146">
        <ele>1398.400024414</ele>
        <time>2012-12-31T05:35:30Z</time>
      </trkpt>
      <trkpt lat="44.94367" lon="6.56071">
        <ele>1401</ele>
        <time>2012-12-31T05:36:08Z</time>
      </trkpt>
      <trkpt lat="44.94367" lon="6.56059">
        <ele>1401</ele>
        <time>2012-12-31T05:36:16Z</time>
      </trkpt>
      <trkpt lat="44.94341" lon="6.56018">
        <ele>1403.199951172</ele>
        <time>2012-12-31T05:36:32Z</time>
      </trkpt>
      <trkpt lat="44.94303" lon="6.55942">
        <ele>1402.400024414</ele>
        <time>2012-12-31T05:37:17Z</time>
      </trkpt>
      <trkpt lat="44.94288" lon="6.55933">
        <ele>1403.400024414</ele>
        <time>2012-12-31T05:37:32Z</time>
      </trkpt>
      <trkpt lat="44.94271" lon="6.55929">
        <ele>1404.800048828</ele>
        <time>2012-12-31T05:37:47Z</time>
      </trkpt>
      <trkpt lat="44.94265" lon="6.55923">
        <ele>1405.400024414</ele>
        <time>2012-12-31T05:37:55Z</time>
      </trkpt>
      <trkpt lat="44.94236" lon="6.55841">
        <ele>1406.400024414</ele>
        <time>2012-12-31T05:38:46Z</time>
      </trkpt>
      <trkpt lat="44.94215" lon="6.55733">
        <ele>1409</ele>
        <time>2012-12-31T05:40:01Z</time>
      </trkpt>
      <trkpt lat="44.94177" lon="6.55677">
        <ele>1416</ele>
        <time>2012-12-31T05:41:02Z</time>
      </trkpt>
      <trkpt lat="44.94171" lon="6.5565">
        <ele>1418.800048828</ele>
        <time>2012-12-31T05:41:23Z</time>
      </trkpt>
      <trkpt lat="44.94153" lon="6.55614">
        <ele>1425</ele>
        <time>2012-12-31T05:41:46Z</time>
      </trkpt>
      <trkpt lat="44.94138" lon="6.55592">
        <ele>1429.800048828</ele>
        <time>2012-12-31T05:42:01Z</time>
      </trkpt>
      <trkpt lat="44.94128" lon="6.55572">
        <ele>1433.199951172</ele>
        <time>2012-12-31T05:42:15Z</time>
      </trkpt>
      <trkpt lat="44.94127" lon="6.55556">
        <ele>1434.599975586</ele>
        <time>2012-12-31T05:42:27Z</time>
      </trkpt>
      <trkpt lat="44.94133" lon="6.55533">
        <ele>1435.199951172</ele>
        <time>2012-12-31T05:42:44Z</time>
      </trkpt>
      <trkpt lat="44.94138" lon="6.55498">
        <ele>1436.800048828</ele>
        <time>2012-12-31T05:43:07Z</time>
      </trkpt>
      <trkpt lat="44.94139" lon="6.55482">
        <ele>1438.199951172</ele>
        <time>2012-12-31T05:43:18Z</time>
      </trkpt>
      <trkpt lat="44.94135" lon="6.55465">
        <ele>1440.400024414</ele>
        <time>2012-12-31T05:43:28Z</time>
      </trkpt>
      <trkpt lat="44.94131" lon="6.55461">
        <ele>1441.599975586</ele>
        <time>2012-12-31T05:43:40Z</time>
      </trkpt>
      <trkpt lat="44.94138" lon="6.55432">
        <ele>1442.400024414</ele>
        <time>2012-12-31T05:44:02Z</time>
      </trkpt>
      <trkpt lat="44.94147" lon="6.5537">
        <ele>1447.400024414</ele>
        <time>2012-12-31T05:44:42Z</time>
      </trkpt>
      <trkpt lat="44.94159" lon="6.55334">
        <ele>1447.400024414</ele>
        <time>2012-12-31T05:45:07Z</time>
      </trkpt>
      <trkpt lat="44.94177" lon="6.55302">
        <ele>1448</ele>
        <time>2012-12-31T05:45:33Z</time>
      </trkpt>
      <trkpt lat="44.9418" lon="6.55289">
        <ele>1449.599975586</ele>
        <time>2012-12-31T05:45:43Z</time>
      </trkpt>
      <trkpt lat="44.94177" lon="6.5528">
        <ele>1451.599975586</ele>
        <time>2012-12-31T05:45:51Z</time>
      </trkpt>
      <trkpt lat="44.94168" lon="6.55269">
        <ele>1454.599975586</ele>
        <time>2012-12-31T05:46:03Z</time>
      </trkpt>
      <trkpt lat="44.94162" lon="6.55248">
        <ele>1460.199951172</ele>
        <time>2012-12-31T05:46:20Z</time>
      </trkpt>
      <trkpt lat="44.94163" lon="6.55236">
        <ele>1461.199951172</ele>
        <time>2012-12-31T05:46:30Z</time>
      </trkpt>
      <trkpt lat="44.94161" lon="6.55224">
        <ele>1463.800048828</ele>
        <time>2012-12-31T05:46:39Z</time>
      </trkpt>
      <trkpt lat="44.94164" lon="6.55211">
        <ele>1464</ele>
        <time>2012-12-31T05:46:51Z</time>
      </trkpt>
      <trkpt lat="44.94167" lon="6.55207">
        <ele>1463</ele>
        <time>2012-12-31T05:46:56Z</time>
      </trkpt>
      <trkpt lat="44.94166" lon="6.55199">
        <ele>1464</ele>
        <time>2012-12-31T05:47:06Z</time>
      </trkpt>
      <trkpt lat="44.94168" lon="6.5521">
        <ele>1462.400024414</ele>
        <time>2012-12-31T05:48:33Z</time>
      </trkpt>
      <trkpt lat="44.94168" lon="6.55207">
        <ele>1462.800048828</ele>
        <time>2012-12-31T05:48:38Z</time>
      </trkpt>
      <trkpt lat="44.94161" lon="6.55202">
        <ele>1466.800048828</ele>
        <time>2012-12-31T05:48:47Z</time>
      </trkpt>
      <trkpt lat="44.94171" lon="6.55201">
        <ele>1463</ele>
        <time>2012-12-31T05:49:45Z</time>
      </trkpt>
      <trkpt lat="44.94167" lon="6.55214">
        <ele>1462.199951172</ele>
        <time>2012-12-31T05:51:52Z</time>
      </trkpt>
      <trkpt lat="44.94169" lon="6.55212">
        <ele>1462.199951172</ele>
        <time>2012-12-31T05:52:28Z</time>
      </trkpt>
      <trkpt lat="44.94169" lon="6.55205">
        <ele>1462.800048828</ele>
        <time>2012-12-31T05:54:15Z</time>
      </trkpt>
      <trkpt lat="44.94163" lon="6.55208">
        <ele>1465</ele>
        <time>2012-12-31T05:54:48Z</time>
      </trkpt>
      <trkpt lat="44.94161" lon="6.55183">
        <ele>1468.599975586</ele>
        <time>2012-12-31T05:55:10Z</time>
      </trkpt>
      <trkpt lat="44.94165" lon="6.55178">
        <ele>1467.400024414</ele>
        <time>2012-12-31T05:55:14Z</time>
      </trkpt>
      <trkpt lat="44.94144" lon="6.55138">
        <ele>1481</ele>
        <time>2012-12-31T05:55:48Z</time>
      </trkpt>
      <trkpt lat="44.94144" lon="6.55134">
        <ele>1481.599975586</ele>
        <time>2012-12-31T05:55:52Z</time>
      </trkpt>
      <trkpt lat="44.94133" lon="6.55117">
        <ele>1487.800048828</ele>
        <time>2012-12-31T05:56:11Z</time>
      </trkpt>
      <trkpt lat="44.9413" lon="6.55103">
        <ele>1490.199951172</ele>
        <time>2012-12-31T05:56:25Z</time>
      </trkpt>
      <trkpt lat="44.94132" lon="6.55089">
        <ele>1490.199951172</ele>
        <time>2012-12-31T05:56:40Z</time>
      </trkpt>
      <trkpt lat="44.94128" lon="6.55071">
        <ele>1493.800048828</ele>
        <time>2012-12-31T05:56:59Z</time>
      </trkpt>
      <trkpt lat="44.94142" lon="6.55056">
        <ele>1490.199951172</ele>
        <time>2012-12-31T05:57:25Z</time>
      </trkpt>
      <trkpt lat="44.94124" lon="6.5505">
        <ele>1498</ele>
        <time>2012-12-31T05:58:08Z</time>
      </trkpt>
      <trkpt lat="44.94125" lon="6.55048">
        <ele>1498</ele>
        <time>2012-12-31T05:58:12Z</time>
      </trkpt>
      <trkpt lat="44.94138" lon="6.55038">
        <ele>1494.400024414</ele>
        <time>2012-12-31T05:58:28Z</time>
      </trkpt>
      <trkpt lat="44.94149" lon="6.55025">
        <ele>1492.199951172</ele>
        <time>2012-12-31T05:58:43Z</time>
      </trkpt>
      <trkpt lat="44.94155" lon="6.55013">
        <ele>1492.199951172</ele>
        <time>2012-12-31T05:58:54Z</time>
      </trkpt>
      <trkpt lat="44.94164" lon="6.54974">
        <ele>1501</ele>
        <time>2012-12-31T05:59:32Z</time>
      </trkpt>
      <trkpt lat="44.94183" lon="6.54962">
        <ele>1501</ele>
        <time>2012-12-31T05:59:55Z</time>
      </trkpt>
      <trkpt lat="44.94199" lon="6.54964">
        <ele>1497.400024414</ele>
        <time>2012-12-31T06:00:10Z</time>
      </trkpt>
      <trkpt lat="44.94201" lon="6.5496">
        <ele>1497.800048828</ele>
        <time>2012-12-31T06:00:15Z</time>
      </trkpt>
      <trkpt lat="44.94202" lon="6.54952">
        <ele>1500</ele>
        <time>2012-12-31T06:00:25Z</time>
      </trkpt>
      <trkpt lat="44.94195" lon="6.54945">
        <ele>1504</ele>
        <time>2012-12-31T06:00:41Z</time>
      </trkpt>
      <trkpt lat="44.94201" lon="6.54925">
        <ele>1508.400024414</ele>
        <time>2012-12-31T06:01:05Z</time>
      </trkpt>
      <trkpt lat="44.94208" lon="6.54924">
        <ele>1506.800048828</ele>
        <time>2012-12-31T06:01:29Z</time>
      </trkpt>
      <trkpt lat="44.94217" lon="6.54872">
        <ele>1519.400024414</ele>
        <time>2012-12-31T06:02:27Z</time>
      </trkpt>
      <trkpt lat="44.94216" lon="6.54839">
        <ele>1530</ele>
        <time>2012-12-31T06:02:59Z</time>
      </trkpt>
      <trkpt lat="44.94218" lon="6.54836">
        <ele>1530.199951172</ele>
        <time>2012-12-31T06:03:02Z</time>
      </trkpt>
      <trkpt lat="44.94218" lon="6.54828">
        <ele>1533.199951172</ele>
        <time>2012-12-31T06:03:12Z</time>
      </trkpt>
      <trkpt lat="44.94224" lon="6.5481">
        <ele>1538.800048828</ele>
        <time>2012-12-31T06:03:37Z</time>
      </trkpt>
      <trkpt lat="44.9423" lon="6.54803">
        <ele>1540.400024414</ele>
        <time>2012-12-31T06:04:11Z</time>
      </trkpt>
      <trkpt lat="44.94234" lon="6.54784">
        <ele>1547</ele>
        <time>2012-12-31T06:04:34Z</time>
      </trkpt>
      <trkpt lat="44.94243" lon="6.54775">
        <ele>1548.800048828</ele>
        <time>2012-12-31T06:05:05Z</time>
      </trkpt>
      <trkpt lat="44.94249" lon="6.54773">
        <ele>1548</ele>
        <time>2012-12-31T06:05:17Z</time>
      </trkpt>
      <trkpt lat="44.94248" lon="6.5477">
        <ele>1549.400024414</ele>
        <time>2012-12-31T06:05:24Z</time>
      </trkpt>
      <trkpt lat="44.94232" lon="6.54775">
        <ele>1551.599975586</ele>
        <time>2012-12-31T06:05:53Z</time>
      </trkpt>
      <trkpt lat="44.94211" lon="6.54792">
        <ele>1550.199951172</ele>
        <time>2012-12-31T06:06:19Z</time>
      </trkpt>
      <trkpt lat="44.94166" lon="6.5482">
        <ele>1552</ele>
        <time>2012-12-31T06:07:06Z</time>
      </trkpt>
      <trkpt lat="44.94153" lon="6.54822">
        <ele>1553.199951172</ele>
        <time>2012-12-31T06:07:21Z</time>
      </trkpt>
      <trkpt lat="44.94129" lon="6.5481">
        <ele>1560.599975586</ele>
        <time>2012-12-31T06:07:57Z</time>
      </trkpt>
      <trkpt lat="44.94111" lon="6.54805">
        <ele>1564.400024414</ele>
        <time>2012-12-31T06:08:22Z</time>
      </trkpt>
      <trkpt lat="44.9411" lon="6.54802">
        <ele>1565.400024414</ele>
        <time>2012-12-31T06:08:26Z</time>
      </trkpt>
      <trkpt lat="44.94117" lon="6.5478">
        <ele>1571.800048828</ele>
        <time>2012-12-31T06:08:56Z</time>
      </trkpt>
      <trkpt lat="44.94108" lon="6.54775">
        <ele>1574</ele>
        <time>2012-12-31T06:09:16Z</time>
      </trkpt>
      <trkpt lat="44.941" lon="6.54766">
        <ele>1577.400024414</ele>
        <time>2012-12-31T06:09:39Z</time>
      </trkpt>
      <trkpt lat="44.9409" lon="6.54736">
        <ele>1587.199951172</ele>
        <time>2012-12-31T06:10:17Z</time>
      </trkpt>
      <trkpt lat="44.9411" lon="6.54729">
        <ele>1588.599975586</ele>
        <time>2012-12-31T06:10:56Z</time>
      </trkpt>
      <trkpt lat="44.94106" lon="6.54694">
        <ele>1600.400024414</ele>
        <time>2012-12-31T06:11:45Z</time>
      </trkpt>
      <trkpt lat="44.94086" lon="6.54668">
        <ele>1609.599975586</ele>
        <time>2012-12-31T06:12:31Z</time>
      </trkpt>
      <trkpt lat="44.94076" lon="6.54665">
        <ele>1611.199951172</ele>
        <time>2012-12-31T06:12:56Z</time>
      </trkpt>
      <trkpt lat="44.94075" lon="6.54654">
        <ele>1615.199951172</ele>
        <time>2012-12-31T06:13:10Z</time>
      </trkpt>
      <trkpt lat="44.94067" lon="6.54653">
        <ele>1616</ele>
        <time>2012-12-31T06:13:24Z</time>
      </trkpt>
      <trkpt lat="44.94048" lon="6.54642">
        <ele>1621.400024414</ele>
        <time>2012-12-31T06:13:48Z</time>
      </trkpt>
      <trkpt lat="44.94028" lon="6.54635">
        <ele>1625.599975586</ele>
        <time>2012-12-31T06:14:18Z</time>
      </trkpt>
      <trkpt lat="44.93997" lon="6.5463">
        <ele>1629.400024414</ele>
        <time>2012-12-31T06:15:28Z</time>
      </trkpt>
      <trkpt lat="44.9398" lon="6.5462">
        <ele>1633.599975586</ele>
        <time>2012-12-31T06:16:03Z</time>
      </trkpt>
      <trkpt lat="44.93988" lon="6.54583">
        <ele>1646.400024414</ele>
        <time>2012-12-31T06:16:52Z</time>
      </trkpt>
      <trkpt lat="44.93963" lon="6.5457">
        <ele>1651.599975586</ele>
        <time>2012-12-31T06:17:45Z</time>
      </trkpt>
      <trkpt lat="44.93981" lon="6.54519">
        <ele>1667.800048828</ele>
        <time>2012-12-31T06:18:59Z</time>
      </trkpt>
      <trkpt lat="44.93967" lon="6.54515">
        <ele>1669.599975586</ele>
        <time>2012-12-31T06:19:30Z</time>
      </trkpt>
      <trkpt lat="44.93945" lon="6.54492">
        <ele>1678</ele>
        <time>2012-12-31T06:20:16Z</time>
      </trkpt>
      <trkpt lat="44.93931" lon="6.54483">
        <ele>1681.800048828</ele>
        <time>2012-12-31T06:20:40Z</time>
      </trkpt>
      <trkpt lat="44.93926" lon="6.5447">
        <ele>1686.599975586</ele>
        <time>2012-12-31T06:20:57Z</time>
      </trkpt>
      <trkpt lat="44.93934" lon="6.54445">
        <ele>1694.199951172</ele>
        <time>2012-12-31T06:21:28Z</time>
      </trkpt>
      <trkpt lat="44.9394" lon="6.54413">
        <ele>1704</ele>
        <time>2012-12-31T06:22:08Z</time>
      </trkpt>
      <trkpt lat="44.93938" lon="6.54402">
        <ele>1707.599975586</ele>
        <time>2012-12-31T06:22:22Z</time>
      </trkpt>
      <trkpt lat="44.93927" lon="6.54397">
        <ele>1710.199951172</ele>
        <time>2012-12-31T06:22:42Z</time>
      </trkpt>
      <trkpt lat="44.93903" lon="6.54377">
        <ele>1717.599975586</ele>
        <time>2012-12-31T06:23:21Z</time>
      </trkpt>
      <trkpt lat="44.93906" lon="6.54381">
        <ele>1716</ele>
        <time>2012-12-31T06:23:30Z</time>
      </trkpt>
      <trkpt lat="44.93854" lon="6.54353">
        <ele>1730.599975586</ele>
        <time>2012-12-31T06:24:45Z</time>
      </trkpt>
      <trkpt lat="44.9381" lon="6.54345">
        <ele>1741.400024414</ele>
        <time>2012-12-31T06:25:32Z</time>
      </trkpt>
      <trkpt lat="44.93757" lon="6.54349">
        <ele>1751.400024414</ele>
        <time>2012-12-31T06:26:26Z</time>
      </trkpt>
      <trkpt lat="44.93743" lon="6.54356">
        <ele>1751</ele>
        <time>2012-12-31T06:26:41Z</time>
      </trkpt>
      <trkpt lat="44.93704" lon="6.54388">
        <ele>1743.800048828</ele>
        <time>2012-12-31T06:27:26Z</time>
      </trkpt>
      <trkpt lat="44.93677" lon="6.54397">
        <ele>1744.800048828</ele>
        <time>2012-12-31T06:27:53Z</time>
      </trkpt>
      <trkpt lat="44.93642" lon="6.54398">
        <ele>1748.599975586</ele>
        <time>2012-12-31T06:28:32Z</time>
      </trkpt>
      <trkpt lat="44.93631" lon="6.54392">
        <ele>1752.199951172</ele>
        <time>2012-12-31T06:28:45Z</time>
      </trkpt>
      <trkpt lat="44.93612" lon="6.54369">
        <ele>1762.599975586</ele>
        <time>2012-12-31T06:29:13Z</time>
      </trkpt>
      <trkpt lat="44.93546" lon="6.5433">
        <ele>1776.800048828</ele>
        <time>2012-12-31T06:30:41Z</time>
      </trkpt>
      <trkpt lat="44.93525" lon="6.54305">
        <ele>1784.199951172</ele>
        <time>2012-12-31T06:31:15Z</time>
      </trkpt>
      <trkpt lat="44.93525" lon="6.543">
        <ele>1785.599975586</ele>
        <time>2012-12-31T06:31:21Z</time>
      </trkpt>
      <trkpt lat="44.93528" lon="6.54294">
        <ele>1787.400024414</ele>
        <time>2012-12-31T06:31:31Z</time>
      </trkpt>
      <trkpt lat="44.93498" lon="6.54266">
        <ele>1794.400024414</ele>
        <time>2012-12-31T06:32:31Z</time>
      </trkpt>
      <trkpt lat="44.93471" lon="6.54244">
        <ele>1802.800048828</ele>
        <time>2012-12-31T06:33:26Z</time>
      </trkpt>
      <trkpt lat="44.93475" lon="6.54232">
        <ele>1806.599975586</ele>
        <time>2012-12-31T06:33:46Z</time>
      </trkpt>
      <trkpt lat="44.93458" lon="6.54226">
        <ele>1809.800048828</ele>
        <time>2012-12-31T06:34:24Z</time>
      </trkpt>
      <trkpt lat="44.93457" lon="6.54223">
        <ele>1810.800048828</ele>
        <time>2012-12-31T06:34:30Z</time>
      </trkpt>
      <trkpt lat="44.93421" lon="6.54225">
        <ele>1812.400024414</ele>
        <time>2012-12-31T06:35:43Z</time>
      </trkpt>
      <trkpt lat="44.93415" lon="6.54209">
        <ele>1817.199951172</ele>
        <time>2012-12-31T06:36:09Z</time>
      </trkpt>
      <trkpt lat="44.9342" lon="6.54203">
        <ele>1818.599975586</ele>
        <time>2012-12-31T06:36:28Z</time>
      </trkpt>
      <trkpt lat="44.93413" lon="6.54199">
        <ele>1820.199951172</ele>
        <time>2012-12-31T06:36:42Z</time>
      </trkpt>
      <trkpt lat="44.93402" lon="6.54186">
        <ele>1824.199951172</ele>
        <time>2012-12-31T06:37:05Z</time>
      </trkpt>
      <trkpt lat="44.93397" lon="6.54164">
        <ele>1830.199951172</ele>
        <time>2012-12-31T06:37:41Z</time>
      </trkpt>
      <trkpt lat="44.93397" lon="6.54143">
        <ele>1837.199951172</ele>
        <time>2012-12-31T06:38:05Z</time>
      </trkpt>
      <trkpt lat="44.93404" lon="6.54116">
        <ele>1846.199951172</ele>
        <time>2012-12-31T06:38:43Z</time>
      </trkpt>
      <trkpt lat="44.9338" lon="6.54096">
        <ele>1851.400024414</ele>
        <time>2012-12-31T06:39:43Z</time>
      </trkpt>
      <trkpt lat="44.93368" lon="6.54079">
        <ele>1855.599975586</ele>
        <time>2012-12-31T06:40:22Z</time>
      </trkpt>
      <trkpt lat="44.9338" lon="6.54067">
        <ele>1860</ele>
        <time>2012-12-31T06:40:57Z</time>
      </trkpt>
      <trkpt lat="44.93377" lon="6.54064">
        <ele>1860.800048828</ele>
        <time>2012-12-31T06:41:05Z</time>
      </trkpt>
      <trkpt lat="44.93377" lon="6.54049">
        <ele>1865.400024414</ele>
        <time>2012-12-31T06:41:24Z</time>
      </trkpt>
      <trkpt lat="44.93374" lon="6.54046">
        <ele>1866.199951172</ele>
        <time>2012-12-31T06:41:32Z</time>
      </trkpt>
      <trkpt lat="44.93365" lon="6.54021">
        <ele>1873</ele>
        <time>2012-12-31T06:42:03Z</time>
      </trkpt>
      <trkpt lat="44.93344" lon="6.54007">
        <ele>1876.199951172</ele>
        <time>2012-12-31T06:42:43Z</time>
      </trkpt>
      <trkpt lat="44.93329" lon="6.53979">
        <ele>1883.800048828</ele>
        <time>2012-12-31T06:43:26Z</time>
      </trkpt>
      <trkpt lat="44.93322" lon="6.53936">
        <ele>1895</ele>
        <time>2012-12-31T06:44:20Z</time>
      </trkpt>
      <trkpt lat="44.93326" lon="6.53933">
        <ele>1896.400024414</ele>
        <time>2012-12-31T06:44:36Z</time>
      </trkpt>
      <trkpt lat="44.93333" lon="6.5392">
        <ele>1901</ele>
        <time>2012-12-31T06:44:57Z</time>
      </trkpt>
      <trkpt lat="44.93332" lon="6.53914">
        <ele>1902.400024414</ele>
        <time>2012-12-31T06:45:08Z</time>
      </trkpt>
      <trkpt lat="44.93319" lon="6.53898">
        <ele>1905</ele>
        <time>2012-12-31T06:45:43Z</time>
      </trkpt>
      <trkpt lat="44.93316" lon="6.53889">
        <ele>1907.199951172</ele>
        <time>2012-12-31T06:46:01Z</time>
      </trkpt>
      <trkpt lat="44.93318" lon="6.53887">
        <ele>1907.800048828</ele>
        <time>2012-12-31T06:46:10Z</time>
      </trkpt>
      <trkpt lat="44.93319" lon="6.53859">
        <ele>1915.199951172</ele>
        <time>2012-12-31T06:46:50Z</time>
      </trkpt>
      <trkpt lat="44.93317" lon="6.53847">
        <ele>1918.199951172</ele>
        <time>2012-12-31T06:47:09Z</time>
      </trkpt>
      <trkpt lat="44.9331" lon="6.53831">
        <ele>1921.400024414</ele>
        <time>2012-12-31T06:47:32Z</time>
      </trkpt>
      <trkpt lat="44.93307" lon="6.53812">
        <ele>1924.800048828</ele>
        <time>2012-12-31T06:47:56Z</time>
      </trkpt>
      <trkpt lat="44.93286" lon="6.53778">
        <ele>1929.800048828</ele>
        <time>2012-12-31T06:48:57Z</time>
      </trkpt>
      <trkpt lat="44.9329" lon="6.53767">
        <ele>1932.599975586</ele>
        <time>2012-12-31T06:50:16Z</time>
      </trkpt>
      <trkpt lat="44.93298" lon="6.53761">
        <ele>1934.400024414</ele>
        <time>2012-12-31T06:50:30Z</time>
      </trkpt>
      <trkpt lat="44.93308" lon="6.5374">
        <ele>1939</ele>
        <time>2012-12-31T06:50:51Z</time>
      </trkpt>
      <trkpt lat="44.93321" lon="6.53724">
        <ele>1942.800048828</ele>
        <time>2012-12-31T06:51:11Z</time>
      </trkpt>
      <trkpt lat="44.93336" lon="6.5371">
        <ele>1947</ele>
        <time>2012-12-31T06:51:39Z</time>
      </trkpt>
      <trkpt lat="44.9336" lon="6.53696">
        <ele>1954.199951172</ele>
        <time>2012-12-31T06:52:25Z</time>
      </trkpt>
      <trkpt lat="44.93395" lon="6.53687">
        <ele>1962.199951172</ele>
        <time>2012-12-31T06:53:32Z</time>
      </trkpt>
      <trkpt lat="44.93388" lon="6.53666">
        <ele>1965.400024414</ele>
        <time>2012-12-31T06:54:03Z</time>
      </trkpt>
      <trkpt lat="44.93397" lon="6.5365">
        <ele>1971.400024414</ele>
        <time>2012-12-31T06:54:36Z</time>
      </trkpt>
      <trkpt lat="44.93398" lon="6.5364">
        <ele>1973.800048828</ele>
        <time>2012-12-31T06:54:48Z</time>
      </trkpt>
      <trkpt lat="44.93392" lon="6.5362">
        <ele>1977.599975586</ele>
        <time>2012-12-31T06:55:19Z</time>
      </trkpt>
      <trkpt lat="44.93393" lon="6.53603">
        <ele>1982.199951172</ele>
        <time>2012-12-31T06:55:40Z</time>
      </trkpt>
      <trkpt lat="44.93398" lon="6.53591">
        <ele>1985.800048828</ele>
        <time>2012-12-31T06:56:00Z</time>
      </trkpt>
      <trkpt lat="44.93377" lon="6.53565">
        <ele>1990.599975586</ele>
        <time>2012-12-31T06:56:58Z</time>
      </trkpt>
      <trkpt lat="44.93373" lon="6.53563">
        <ele>1990.599975586</ele>
        <time>2012-12-31T06:57:10Z</time>
      </trkpt>
      <trkpt lat="44.93361" lon="6.53537">
        <ele>1998</ele>
        <time>2012-12-31T06:57:53Z</time>
      </trkpt>
      <trkpt lat="44.9336" lon="6.53522">
        <ele>2003.199951172</ele>
        <time>2012-12-31T06:58:11Z</time>
      </trkpt>
      <trkpt lat="44.93352" lon="6.53496">
        <ele>2010.400024414</ele>
        <time>2012-12-31T06:58:45Z</time>
      </trkpt>
      <trkpt lat="44.93346" lon="6.53487">
        <ele>2012.800048828</ele>
        <time>2012-12-31T06:58:58Z</time>
      </trkpt>
      <trkpt lat="44.93338" lon="6.53436">
        <ele>2028.800048828</ele>
        <time>2012-12-31T07:00:48Z</time>
      </trkpt>
      <trkpt lat="44.93327" lon="6.53405">
        <ele>2037.800048828</ele>
        <time>2012-12-31T07:01:44Z</time>
      </trkpt>
      <trkpt lat="44.93323" lon="6.53402">
        <ele>2038.199951172</ele>
        <time>2012-12-31T07:01:58Z</time>
      </trkpt>
      <trkpt lat="44.93308" lon="6.53368">
        <ele>2046.800048828</ele>
        <time>2012-12-31T07:03:09Z</time>
      </trkpt>
      <trkpt lat="44.93304" lon="6.53335">
        <ele>2057.199951172</ele>
        <time>2012-12-31T07:03:54Z</time>
      </trkpt>
      <trkpt lat="44.93305" lon="6.53326">
        <ele>2060.199951172</ele>
        <time>2012-12-31T07:04:05Z</time>
      </trkpt>
      <trkpt lat="44.93302" lon="6.53317">
        <ele>2062.399902344</ele>
        <time>2012-12-31T07:04:16Z</time>
      </trkpt>
      <trkpt lat="44.93299" lon="6.53286">
        <ele>2071</ele>
        <time>2012-12-31T07:05:01Z</time>
      </trkpt>
      <trkpt lat="44.93301" lon="6.53279">
        <ele>2073.399902344</ele>
        <time>2012-12-31T07:05:15Z</time>
      </trkpt>
      <trkpt lat="44.93293" lon="6.53256">
        <ele>2078.399902344</ele>
        <time>2012-12-31T07:06:05Z</time>
      </trkpt>
      <trkpt lat="44.93293" lon="6.53242">
        <ele>2082.600097656</ele>
        <time>2012-12-31T07:06:23Z</time>
      </trkpt>
      <trkpt lat="44.93278" lon="6.53213">
        <ele>2087</ele>
        <time>2012-12-31T07:07:19Z</time>
      </trkpt>
      <trkpt lat="44.93277" lon="6.53207">
        <ele>2088.600097656</ele>
        <time>2012-12-31T07:07:28Z</time>
      </trkpt>
      <trkpt lat="44.93281" lon="6.53201">
        <ele>2091.399902344</ele>
        <time>2012-12-31T07:07:42Z</time>
      </trkpt>
      <trkpt lat="44.93292" lon="6.53197">
        <ele>2095.199951172</ele>
        <time>2012-12-31T07:08:43Z</time>
      </trkpt>
      <trkpt lat="44.93294" lon="6.53194">
        <ele>2096.600097656</ele>
        <time>2012-12-31T07:09:03Z</time>
      </trkpt>
      <trkpt lat="44.93302" lon="6.53193">
        <ele>2098.800048828</ele>
        <time>2012-12-31T07:09:35Z</time>
      </trkpt>
      <trkpt lat="44.93297" lon="6.53188">
        <ele>2099.199951172</ele>
        <time>2012-12-31T07:09:57Z</time>
      </trkpt>
      <trkpt lat="44.93297" lon="6.5316">
        <ele>2106.600097656</ele>
        <time>2012-12-31T07:10:50Z</time>
      </trkpt>
      <trkpt lat="44.93306" lon="6.5314">
        <ele>2113</ele>
        <time>2012-12-31T07:11:36Z</time>
      </trkpt>
      <trkpt lat="44.9331" lon="6.53134">
        <ele>2115.399902344</ele>
        <time>2012-12-31T07:11:56Z</time>
      </trkpt>
      <trkpt lat="44.93312" lon="6.53137">
        <ele>2115.199951172</ele>
        <time>2012-12-31T07:12:09Z</time>
      </trkpt>
      <trkpt lat="44.93317" lon="6.53131">
        <ele>2117.600097656</ele>
        <time>2012-12-31T07:12:25Z</time>
      </trkpt>
      <trkpt lat="44.93328" lon="6.53126">
        <ele>2121.399902344</ele>
        <time>2012-12-31T07:12:52Z</time>
      </trkpt>
      <trkpt lat="44.93338" lon="6.53133">
        <ele>2122.600097656</ele>
        <time>2012-12-31T07:13:24Z</time>
      </trkpt>
      <trkpt lat="44.93349" lon="6.53134">
        <ele>2125.600097656</ele>
        <time>2012-12-31T07:13:59Z</time>
      </trkpt>
      <trkpt lat="44.93362" lon="6.53112">
        <ele>2134.399902344</ele>
        <time>2012-12-31T07:14:50Z</time>
      </trkpt>
      <trkpt lat="44.93372" lon="6.53104">
        <ele>2139.199951172</ele>
        <time>2012-12-31T07:16:15Z</time>
      </trkpt>
      <trkpt lat="44.93398" lon="6.53057">
        <ele>2157.600097656</ele>
        <time>2012-12-31T07:17:09Z</time>
      </trkpt>
      <trkpt lat="44.93413" lon="6.53036">
        <ele>2166.199951172</ele>
        <time>2012-12-31T07:17:42Z</time>
      </trkpt>
      <trkpt lat="44.93408" lon="6.52973">
        <ele>2177.600097656</ele>
        <time>2012-12-31T07:19:22Z</time>
      </trkpt>
      <trkpt lat="44.93409" lon="6.52955">
        <ele>2181.800048828</ele>
        <time>2012-12-31T07:19:51Z</time>
      </trkpt>
      <trkpt lat="44.93408" lon="6.52916">
        <ele>2189.199951172</ele>
        <time>2012-12-31T07:20:49Z</time>
      </trkpt>
      <trkpt lat="44.934" lon="6.52898">
        <ele>2190.399902344</ele>
        <time>2012-12-31T07:21:25Z</time>
      </trkpt>
      <trkpt lat="44.93423" lon="6.52887">
        <ele>2200</ele>
        <time>2012-12-31T07:22:17Z</time>
      </trkpt>
      <trkpt lat="44.93412" lon="6.52873">
        <ele>2199.600097656</ele>
        <time>2012-12-31T07:22:58Z</time>
      </trkpt>
      <trkpt lat="44.93413" lon="6.52859">
        <ele>2202.399902344</ele>
        <time>2012-12-31T07:24:08Z</time>
      </trkpt>
      <trkpt lat="44.93423" lon="6.52833">
        <ele>2210.800048828</ele>
        <time>2012-12-31T07:24:48Z</time>
      </trkpt>
      <trkpt lat="44.93453" lon="6.52828">
        <ele>2220.199951172</ele>
        <time>2012-12-31T07:25:52Z</time>
      </trkpt>
      <trkpt lat="44.93469" lon="6.5282">
        <ele>2226</ele>
        <time>2012-12-31T07:26:32Z</time>
      </trkpt>
      <trkpt lat="44.9348" lon="6.5281">
        <ele>2231</ele>
        <time>2012-12-31T07:27:03Z</time>
      </trkpt>
      <trkpt lat="44.9349" lon="6.52809">
        <ele>2233.800048828</ele>
        <time>2012-12-31T07:27:27Z</time>
      </trkpt>
      <trkpt lat="44.93505" lon="6.52818">
        <ele>2237.600097656</ele>
        <time>2012-12-31T07:28:01Z</time>
      </trkpt>
      <trkpt lat="44.93548" lon="6.52831">
        <ele>2254</ele>
        <time>2012-12-31T07:29:42Z</time>
      </trkpt>
      <trkpt lat="44.9358" lon="6.52836">
        <ele>2267.399902344</ele>
        <time>2012-12-31T07:31:51Z</time>
      </trkpt>
      <trkpt lat="44.93603" lon="6.52831">
        <ele>2278.399902344</ele>
        <time>2012-12-31T07:32:48Z</time>
      </trkpt>
      <trkpt lat="44.93603" lon="6.52806">
        <ele>2281.199951172</ele>
        <time>2012-12-31T07:33:32Z</time>
      </trkpt>
      <trkpt lat="44.93621" lon="6.52803">
        <ele>2289.800048828</ele>
        <time>2012-12-31T07:34:24Z</time>
      </trkpt>
      <trkpt lat="44.93626" lon="6.52794">
        <ele>2292.800048828</ele>
        <time>2012-12-31T07:34:57Z</time>
      </trkpt>
      <trkpt lat="44.93638" lon="6.52799">
        <ele>2297.199951172</ele>
        <time>2012-12-31T07:35:38Z</time>
      </trkpt>
      <trkpt lat="44.93637" lon="6.52778">
        <ele>2298.600097656</ele>
        <time>2012-12-31T07:36:19Z</time>
      </trkpt>
      <trkpt lat="44.9365" lon="6.52748">
        <ele>2306</ele>
        <time>2012-12-31T07:37:08Z</time>
      </trkpt>
      <trkpt lat="44.93665" lon="6.5274">
        <ele>2311.399902344</ele>
        <time>2012-12-31T07:37:42Z</time>
      </trkpt>
      <trkpt lat="44.93701" lon="6.52737">
        <ele>2321.199951172</ele>
        <time>2012-12-31T07:38:51Z</time>
      </trkpt>
      <trkpt lat="44.93719" lon="6.52745">
        <ele>2326.399902344</ele>
        <time>2012-12-31T07:39:38Z</time>
      </trkpt>
      <trkpt lat="44.93735" lon="6.52758">
        <ele>2331.600097656</ele>
        <time>2012-12-31T07:40:56Z</time>
      </trkpt>
      <trkpt lat="44.93741" lon="6.52773">
        <ele>2336</ele>
        <time>2012-12-31T07:41:15Z</time>
      </trkpt>
      <trkpt lat="44.93749" lon="6.52813">
        <ele>2345.199951172</ele>
        <time>2012-12-31T07:42:34Z</time>
      </trkpt>
      <trkpt lat="44.93744" lon="6.52815">
        <ele>2343.199951172</ele>
        <time>2012-12-31T07:44:12Z</time>
      </trkpt>
      <trkpt lat="44.93745" lon="6.52813">
        <ele>2343.399902344</ele>
        <time>2012-12-31T07:44:44Z</time>
      </trkpt>
      <trkpt lat="44.93745" lon="6.52815">
        <ele>2343.600097656</ele>
        <time>2012-12-31T07:45:44Z</time>
      </trkpt>
      <trkpt lat="44.93748" lon="6.52815">
        <ele>2344.800048828</ele>
        <time>2012-12-31T07:48:08Z</time>
      </trkpt>
      <trkpt lat="44.93742" lon="6.52787">
        <ele>2338</ele>
        <time>2012-12-31T07:49:30Z</time>
      </trkpt>
      <trkpt lat="44.93744" lon="6.52773">
        <ele>2336.600097656</ele>
        <time>2012-12-31T07:49:32Z</time>
      </trkpt>
      <trkpt lat="44.93759" lon="6.52743">
        <ele>2337.600097656</ele>
        <time>2012-12-31T07:49:36Z</time>
      </trkpt>
      <trkpt lat="44.93752" lon="6.52714">
        <ele>2333.399902344</ele>
        <time>2012-12-31T07:49:39Z</time>
      </trkpt>
      <trkpt lat="44.93737" lon="6.52698">
        <ele>2328.800048828</ele>
        <time>2012-12-31T07:49:42Z</time>
      </trkpt>
      <trkpt lat="44.93719" lon="6.52691">
        <ele>2324.800048828</ele>
        <time>2012-12-31T07:49:46Z</time>
      </trkpt>
      <trkpt lat="44.937" lon="6.52677">
        <ele>2320.399902344</ele>
        <time>2012-12-31T07:49:49Z</time>
      </trkpt>
      <trkpt lat="44.93682" lon="6.52686">
        <ele>2316.800048828</ele>
        <time>2012-12-31T07:49:52Z</time>
      </trkpt>
      <trkpt lat="44.93674" lon="6.52698">
        <ele>2314.800048828</ele>
        <time>2012-12-31T07:49:54Z</time>
      </trkpt>
      <trkpt lat="44.93664" lon="6.527">
        <ele>2312.399902344</ele>
        <time>2012-12-31T07:49:56Z</time>
      </trkpt>
      <trkpt lat="44.93648" lon="6.52721">
        <ele>2306</ele>
        <time>2012-12-31T07:50:00Z</time>
      </trkpt>
      <trkpt lat="44.93641" lon="6.5275">
        <ele>2302.600097656</ele>
        <time>2012-12-31T07:50:03Z</time>
      </trkpt>
      <trkpt lat="44.93637" lon="6.52799">
        <ele>2297</ele>
        <time>2012-12-31T07:50:31Z</time>
      </trkpt>
      <trkpt lat="44.93626" lon="6.52803">
        <ele>2292</ele>
        <time>2012-12-31T07:50:35Z</time>
      </trkpt>
      <trkpt lat="44.93634" lon="6.52823">
        <ele>2293.399902344</ele>
        <time>2012-12-31T07:50:38Z</time>
      </trkpt>
      <trkpt lat="44.93631" lon="6.52841">
        <ele>2290.399902344</ele>
        <time>2012-12-31T07:50:41Z</time>
      </trkpt>
      <trkpt lat="44.93606" lon="6.52859">
        <ele>2276.199951172</ele>
        <time>2012-12-31T07:50:47Z</time>
      </trkpt>
      <trkpt lat="44.93601" lon="6.52857">
        <ele>2274.399902344</ele>
        <time>2012-12-31T07:50:48Z</time>
      </trkpt>
      <trkpt lat="44.93583" lon="6.52861">
        <ele>2265.399902344</ele>
        <time>2012-12-31T07:50:52Z</time>
      </trkpt>
      <trkpt lat="44.93574" lon="6.52858">
        <ele>2261.800048828</ele>
        <time>2012-12-31T07:50:55Z</time>
      </trkpt>
      <trkpt lat="44.93565" lon="6.52876">
        <ele>2255.600097656</ele>
        <time>2012-12-31T07:50:58Z</time>
      </trkpt>
      <trkpt lat="44.93554" lon="6.5289">
        <ele>2249</ele>
        <time>2012-12-31T07:51:01Z</time>
      </trkpt>
      <trkpt lat="44.93533" lon="6.529">
        <ele>2238</ele>
        <time>2012-12-31T07:51:18Z</time>
      </trkpt>
      <trkpt lat="44.93516" lon="6.52918">
        <ele>2228</ele>
        <time>2012-12-31T07:51:21Z</time>
      </trkpt>
      <trkpt lat="44.935" lon="6.52919">
        <ele>2220.600097656</ele>
        <time>2012-12-31T07:51:23Z</time>
      </trkpt>
      <trkpt lat="44.93497" lon="6.52936">
        <ele>2217.800048828</ele>
        <time>2012-12-31T07:51:25Z</time>
      </trkpt>
      <trkpt lat="44.93483" lon="6.52951">
        <ele>2211</ele>
        <time>2012-12-31T07:51:28Z</time>
      </trkpt>
      <trkpt lat="44.93479" lon="6.52966">
        <ele>2207.600097656</ele>
        <time>2012-12-31T07:51:31Z</time>
      </trkpt>
      <trkpt lat="44.93475" lon="6.52969">
        <ele>2205.600097656</ele>
        <time>2012-12-31T07:51:34Z</time>
      </trkpt>
      <trkpt lat="44.93486" lon="6.52981">
        <ele>2208.800048828</ele>
        <time>2012-12-31T07:51:38Z</time>
      </trkpt>
      <trkpt lat="44.93488" lon="6.52993">
        <ele>2208</ele>
        <time>2012-12-31T07:51:41Z</time>
      </trkpt>
      <trkpt lat="44.93458" lon="6.52968">
        <ele>2198.399902344</ele>
        <time>2012-12-31T07:51:48Z</time>
      </trkpt>
      <trkpt lat="44.93447" lon="6.52967">
        <ele>2194</ele>
        <time>2012-12-31T07:51:53Z</time>
      </trkpt>
      <trkpt lat="44.93434" lon="6.52959">
        <ele>2190.199951172</ele>
        <time>2012-12-31T07:51:56Z</time>
      </trkpt>
      <trkpt lat="44.93395" lon="6.52908">
        <ele>2186.600097656</ele>
        <time>2012-12-31T07:52:05Z</time>
      </trkpt>
      <trkpt lat="44.93389" lon="6.5291">
        <ele>2184.399902344</ele>
        <time>2012-12-31T07:52:06Z</time>
      </trkpt>
      <trkpt lat="44.93371" lon="6.52909">
        <ele>2178.800048828</ele>
        <time>2012-12-31T07:52:09Z</time>
      </trkpt>
      <trkpt lat="44.93363" lon="6.5294">
        <ele>2170</ele>
        <time>2012-12-31T07:52:12Z</time>
      </trkpt>
      <trkpt lat="44.93353" lon="6.52951">
        <ele>2164.399902344</ele>
        <time>2012-12-31T07:52:14Z</time>
      </trkpt>
      <trkpt lat="44.93351" lon="6.52982">
        <ele>2158</ele>
        <time>2012-12-31T07:52:17Z</time>
      </trkpt>
      <trkpt lat="44.93325" lon="6.53007">
        <ele>2146</ele>
        <time>2012-12-31T07:52:22Z</time>
      </trkpt>
      <trkpt lat="44.93325" lon="6.53013">
        <ele>2144.800048828</ele>
        <time>2012-12-31T07:52:23Z</time>
      </trkpt>
      <trkpt lat="44.93316" lon="6.53028">
        <ele>2139.800048828</ele>
        <time>2012-12-31T07:52:26Z</time>
      </trkpt>
      <trkpt lat="44.9331" lon="6.53051">
        <ele>2133.399902344</ele>
        <time>2012-12-31T07:52:31Z</time>
      </trkpt>
      <trkpt lat="44.93309" lon="6.53046">
        <ele>2134.399902344</ele>
        <time>2012-12-31T07:52:35Z</time>
      </trkpt>
      <trkpt lat="44.93299" lon="6.53051">
        <ele>2131</ele>
        <time>2012-12-31T07:54:27Z</time>
      </trkpt>
      <trkpt lat="44.93279" lon="6.53052">
        <ele>2126.399902344</ele>
        <time>2012-12-31T07:54:31Z</time>
      </trkpt>
      <trkpt lat="44.93264" lon="6.53042">
        <ele>2125.800048828</ele>
        <time>2012-12-31T07:54:34Z</time>
      </trkpt>
      <trkpt lat="44.93245" lon="6.5301">
        <ele>2129.600097656</ele>
        <time>2012-12-31T07:54:41Z</time>
      </trkpt>
      <trkpt lat="44.93237" lon="6.5301">
        <ele>2127.199951172</ele>
        <time>2012-12-31T07:54:44Z</time>
      </trkpt>
      <trkpt lat="44.9324" lon="6.53024">
        <ele>2124.399902344</ele>
        <time>2012-12-31T07:54:46Z</time>
      </trkpt>
      <trkpt lat="44.93227" lon="6.53048">
        <ele>2114.199951172</ele>
        <time>2012-12-31T07:54:50Z</time>
      </trkpt>
      <trkpt lat="44.93218" lon="6.53047">
        <ele>2111.800048828</ele>
        <time>2012-12-31T07:54:52Z</time>
      </trkpt>
      <trkpt lat="44.9322" lon="6.53087">
        <ele>2102.199951172</ele>
        <time>2012-12-31T07:54:56Z</time>
      </trkpt>
      <trkpt lat="44.93218" lon="6.53097">
        <ele>2099.600097656</ele>
        <time>2012-12-31T07:54:57Z</time>
      </trkpt>
      <trkpt lat="44.93213" lon="6.53101">
        <ele>2097</ele>
        <time>2012-12-31T07:54:58Z</time>
      </trkpt>
      <trkpt lat="44.93203" lon="6.53102">
        <ele>2093.800048828</ele>
        <time>2012-12-31T07:55:00Z</time>
      </trkpt>
      <trkpt lat="44.93201" lon="6.53107">
        <ele>2092.399902344</ele>
        <time>2012-12-31T07:55:01Z</time>
      </trkpt>
      <trkpt lat="44.93194" lon="6.53107">
        <ele>2090</ele>
        <time>2012-12-31T07:55:03Z</time>
      </trkpt>
      <trkpt lat="44.93185" lon="6.53089">
        <ele>2091.399902344</ele>
        <time>2012-12-31T07:55:06Z</time>
      </trkpt>
      <trkpt lat="44.93176" lon="6.53088">
        <ele>2088.800048828</ele>
        <time>2012-12-31T07:55:09Z</time>
      </trkpt>
      <trkpt lat="44.93176" lon="6.53109">
        <ele>2084.399902344</ele>
        <time>2012-12-31T07:55:12Z</time>
      </trkpt>
      <trkpt lat="44.93167" lon="6.53112">
        <ele>2081</ele>
        <time>2012-12-31T07:55:14Z</time>
      </trkpt>
      <trkpt lat="44.93163" lon="6.53102">
        <ele>2081.600097656</ele>
        <time>2012-12-31T07:55:15Z</time>
      </trkpt>
      <trkpt lat="44.93151" lon="6.53088">
        <ele>2080.199951172</ele>
        <time>2012-12-31T07:55:18Z</time>
      </trkpt>
      <trkpt lat="44.93148" lon="6.53091">
        <ele>2078.600097656</ele>
        <time>2012-12-31T07:55:19Z</time>
      </trkpt>
      <trkpt lat="44.93148" lon="6.53109">
        <ele>2074.800048828</ele>
        <time>2012-12-31T07:55:21Z</time>
      </trkpt>
      <trkpt lat="44.93138" lon="6.53118">
        <ele>2069.199951172</ele>
        <time>2012-12-31T07:55:24Z</time>
      </trkpt>
      <trkpt lat="44.93124" lon="6.53109">
        <ele>2066.199951172</ele>
        <time>2012-12-31T07:55:26Z</time>
      </trkpt>
      <trkpt lat="44.93113" lon="6.53112">
        <ele>2061.399902344</ele>
        <time>2012-12-31T07:55:29Z</time>
      </trkpt>
      <trkpt lat="44.93101" lon="6.53124">
        <ele>2055</ele>
        <time>2012-12-31T07:55:32Z</time>
      </trkpt>
      <trkpt lat="44.93093" lon="6.53146">
        <ele>2048.199951172</ele>
        <time>2012-12-31T07:55:35Z</time>
      </trkpt>
      <trkpt lat="44.93084" lon="6.53155">
        <ele>2043.199951172</ele>
        <time>2012-12-31T07:55:38Z</time>
      </trkpt>
      <trkpt lat="44.93081" lon="6.53181">
        <ele>2037.400024414</ele>
        <time>2012-12-31T07:55:41Z</time>
      </trkpt>
      <trkpt lat="44.93077" lon="6.53182">
        <ele>2036.199951172</ele>
        <time>2012-12-31T07:55:42Z</time>
      </trkpt>
      <trkpt lat="44.93074" lon="6.53197">
        <ele>2032.599975586</ele>
        <time>2012-12-31T07:55:45Z</time>
      </trkpt>
      <trkpt lat="44.93065" lon="6.53212">
        <ele>2027.599975586</ele>
        <time>2012-12-31T07:55:48Z</time>
      </trkpt>
      <trkpt lat="44.93073" lon="6.53221">
        <ele>2027.400024414</ele>
        <time>2012-12-31T07:55:51Z</time>
      </trkpt>
      <trkpt lat="44.93086" lon="6.53228">
        <ele>2029.199951172</ele>
        <time>2012-12-31T07:55:55Z</time>
      </trkpt>
      <trkpt lat="44.93086" lon="6.53237">
        <ele>2027.599975586</ele>
        <time>2012-12-31T07:55:57Z</time>
      </trkpt>
      <trkpt lat="44.93082" lon="6.53241">
        <ele>2025.400024414</ele>
        <time>2012-12-31T07:55:58Z</time>
      </trkpt>
      <trkpt lat="44.93079" lon="6.53271">
        <ele>2017.599975586</ele>
        <time>2012-12-31T07:56:01Z</time>
      </trkpt>
      <trkpt lat="44.93081" lon="6.533">
        <ele>2010.199951172</ele>
        <time>2012-12-31T07:56:03Z</time>
      </trkpt>
      <trkpt lat="44.93065" lon="6.53302">
        <ele>2006.800048828</ele>
        <time>2012-12-31T07:56:05Z</time>
      </trkpt>
      <trkpt lat="44.93056" lon="6.53295">
        <ele>2007.199951172</ele>
        <time>2012-12-31T07:56:07Z</time>
      </trkpt>
      <trkpt lat="44.93049" lon="6.53314">
        <ele>2001.199951172</ele>
        <time>2012-12-31T07:56:09Z</time>
      </trkpt>
      <trkpt lat="44.93058" lon="6.5336">
        <ele>1992.400024414</ele>
        <time>2012-12-31T07:56:14Z</time>
      </trkpt>
      <trkpt lat="44.93069" lon="6.5339">
        <ele>1988.400024414</ele>
        <time>2012-12-31T07:56:17Z</time>
      </trkpt>
      <trkpt lat="44.93064" lon="6.53415">
        <ele>1982.400024414</ele>
        <time>2012-12-31T07:56:20Z</time>
      </trkpt>
      <trkpt lat="44.93088" lon="6.53462">
        <ele>1975.599975586</ele>
        <time>2012-12-31T07:56:27Z</time>
      </trkpt>
      <trkpt lat="44.93085" lon="6.53478">
        <ele>1971.400024414</ele>
        <time>2012-12-31T07:56:30Z</time>
      </trkpt>
      <trkpt lat="44.93073" lon="6.53484">
        <ele>1967.800048828</ele>
        <time>2012-12-31T07:56:33Z</time>
      </trkpt>
      <trkpt lat="44.93053" lon="6.53517">
        <ele>1956.800048828</ele>
        <time>2012-12-31T07:56:39Z</time>
      </trkpt>
      <trkpt lat="44.93061" lon="6.53533">
        <ele>1954.400024414</ele>
        <time>2012-12-31T07:56:41Z</time>
      </trkpt>
      <trkpt lat="44.93059" lon="6.53557">
        <ele>1949</ele>
        <time>2012-12-31T07:56:44Z</time>
      </trkpt>
      <trkpt lat="44.93064" lon="6.53571">
        <ele>1946.400024414</ele>
        <time>2012-12-31T07:56:46Z</time>
      </trkpt>
      <trkpt lat="44.93057" lon="6.53588">
        <ele>1942.400024414</ele>
        <time>2012-12-31T07:56:50Z</time>
      </trkpt>
      <trkpt lat="44.93047" lon="6.53591">
        <ele>1941.199951172</ele>
        <time>2012-12-31T07:56:53Z</time>
      </trkpt>
      <trkpt lat="44.93046" lon="6.53595">
        <ele>1940.599975586</ele>
        <time>2012-12-31T07:56:54Z</time>
      </trkpt>
      <trkpt lat="44.93052" lon="6.53614">
        <ele>1938.199951172</ele>
        <time>2012-12-31T07:56:58Z</time>
      </trkpt>
      <trkpt lat="44.93041" lon="6.53615">
        <ele>1938.199951172</ele>
        <time>2012-12-31T07:57:00Z</time>
      </trkpt>
      <trkpt lat="44.93026" lon="6.53604">
        <ele>1939</ele>
        <time>2012-12-31T07:57:03Z</time>
      </trkpt>
      <trkpt lat="44.93012" lon="6.53614">
        <ele>1938.199951172</ele>
        <time>2012-12-31T07:57:06Z</time>
      </trkpt>
      <trkpt lat="44.93002" lon="6.53639">
        <ele>1937.400024414</ele>
        <time>2012-12-31T07:57:08Z</time>
      </trkpt>
      <trkpt lat="44.93001" lon="6.53669">
        <ele>1937</ele>
        <time>2012-12-31T07:57:10Z</time>
      </trkpt>
      <trkpt lat="44.93003" lon="6.53684">
        <ele>1937.800048828</ele>
        <time>2012-12-31T07:57:11Z</time>
      </trkpt>
      <trkpt lat="44.93016" lon="6.5372">
        <ele>1937.599975586</ele>
        <time>2012-12-31T07:57:14Z</time>
      </trkpt>
      <trkpt lat="44.93106" lon="6.53812">
        <ele>1915.800048828</ele>
        <time>2012-12-31T07:57:25Z</time>
      </trkpt>
      <trkpt lat="44.93124" lon="6.53834">
        <ele>1910.800048828</ele>
        <time>2012-12-31T07:57:27Z</time>
      </trkpt>
      <trkpt lat="44.93142" lon="6.53875">
        <ele>1906.800048828</ele>
        <time>2012-12-31T07:57:30Z</time>
      </trkpt>
      <trkpt lat="44.93163" lon="6.53909">
        <ele>1901</ele>
        <time>2012-12-31T07:57:33Z</time>
      </trkpt>
      <trkpt lat="44.93171" lon="6.53935">
        <ele>1898.599975586</ele>
        <time>2012-12-31T07:57:35Z</time>
      </trkpt>
      <trkpt lat="44.93165" lon="6.53975">
        <ele>1898.400024414</ele>
        <time>2012-12-31T07:57:38Z</time>
      </trkpt>
      <trkpt lat="44.9317" lon="6.54014">
        <ele>1894.599975586</ele>
        <time>2012-12-31T07:57:41Z</time>
      </trkpt>
      <trkpt lat="44.93169" lon="6.54108">
        <ele>1887.400024414</ele>
        <time>2012-12-31T07:57:50Z</time>
      </trkpt>
      <trkpt lat="44.93179" lon="6.54122">
        <ele>1882.800048828</ele>
        <time>2012-12-31T07:57:52Z</time>
      </trkpt>
      <trkpt lat="44.93231" lon="6.54147">
        <ele>1861.400024414</ele>
        <time>2012-12-31T07:57:58Z</time>
      </trkpt>
      <trkpt lat="44.93236" lon="6.54165">
        <ele>1858.199951172</ele>
        <time>2012-12-31T07:58:00Z</time>
      </trkpt>
      <trkpt lat="44.93249" lon="6.54189">
        <ele>1850.599975586</ele>
        <time>2012-12-31T07:58:03Z</time>
      </trkpt>
      <trkpt lat="44.93268" lon="6.54212">
        <ele>1842</ele>
        <time>2012-12-31T07:58:06Z</time>
      </trkpt>
      <trkpt lat="44.93272" lon="6.5422">
        <ele>1839.599975586</ele>
        <time>2012-12-31T07:58:07Z</time>
      </trkpt>
      <trkpt lat="44.9328" lon="6.54226">
        <ele>1836.400024414</ele>
        <time>2012-12-31T07:58:08Z</time>
      </trkpt>
      <trkpt lat="44.93284" lon="6.54236">
        <ele>1833.599975586</ele>
        <time>2012-12-31T07:58:09Z</time>
      </trkpt>
      <trkpt lat="44.93308" lon="6.54253">
        <ele>1823.199951172</ele>
        <time>2012-12-31T07:58:12Z</time>
      </trkpt>
      <trkpt lat="44.93317" lon="6.54251">
        <ele>1820.400024414</ele>
        <time>2012-12-31T07:58:13Z</time>
      </trkpt>
      <trkpt lat="44.93346" lon="6.54234">
        <ele>1816.800048828</ele>
        <time>2012-12-31T07:58:16Z</time>
      </trkpt>
      <trkpt lat="44.93357" lon="6.54234">
        <ele>1815.800048828</ele>
        <time>2012-12-31T07:58:17Z</time>
      </trkpt>
      <trkpt lat="44.93377" lon="6.5425">
        <ele>1810.199951172</ele>
        <time>2012-12-31T07:58:19Z</time>
      </trkpt>
      <trkpt lat="44.93394" lon="6.54274">
        <ele>1804.599975586</ele>
        <time>2012-12-31T07:58:21Z</time>
      </trkpt>
      <trkpt lat="44.93405" lon="6.54284">
        <ele>1801.400024414</ele>
        <time>2012-12-31T07:58:22Z</time>
      </trkpt>
      <trkpt lat="44.93421" lon="6.54307">
        <ele>1794.400024414</ele>
        <time>2012-12-31T07:58:24Z</time>
      </trkpt>
      <trkpt lat="44.93431" lon="6.54313">
        <ele>1791.800048828</ele>
        <time>2012-12-31T07:58:25Z</time>
      </trkpt>
      <trkpt lat="44.93456" lon="6.54312">
        <ele>1789</ele>
        <time>2012-12-31T07:58:27Z</time>
      </trkpt>
      <trkpt lat="44.93466" lon="6.54304">
        <ele>1789.199951172</ele>
        <time>2012-12-31T07:58:28Z</time>
      </trkpt>
      <trkpt lat="44.93493" lon="6.54303">
        <ele>1786</ele>
        <time>2012-12-31T07:58:31Z</time>
      </trkpt>
      <trkpt lat="44.93519" lon="6.54309">
        <ele>1783.400024414</ele>
        <time>2012-12-31T07:58:34Z</time>
      </trkpt>
      <trkpt lat="44.93527" lon="6.54315">
        <ele>1781.599975586</ele>
        <time>2012-12-31T07:58:35Z</time>
      </trkpt>
      <trkpt lat="44.93546" lon="6.54323">
        <ele>1778.800048828</ele>
        <time>2012-12-31T07:58:37Z</time>
      </trkpt>
      <trkpt lat="44.93613" lon="6.54362">
        <ele>1765.800048828</ele>
        <time>2012-12-31T07:58:45Z</time>
      </trkpt>
      <trkpt lat="44.93621" lon="6.54371">
        <ele>1762.199951172</ele>
        <time>2012-12-31T07:58:46Z</time>
      </trkpt>
      <trkpt lat="44.93632" lon="6.54391">
        <ele>1752.599975586</ele>
        <time>2012-12-31T07:58:48Z</time>
      </trkpt>
      <trkpt lat="44.9364" lon="6.54397">
        <ele>1749.400024414</ele>
        <time>2012-12-31T07:58:49Z</time>
      </trkpt>
      <trkpt lat="44.93661" lon="6.544">
        <ele>1746.199951172</ele>
        <time>2012-12-31T07:58:51Z</time>
      </trkpt>
      <trkpt lat="44.93696" lon="6.54396">
        <ele>1741.599975586</ele>
        <time>2012-12-31T07:58:54Z</time>
      </trkpt>
      <trkpt lat="44.93719" lon="6.54378">
        <ele>1746</ele>
        <time>2012-12-31T07:58:56Z</time>
      </trkpt>
      <trkpt lat="44.93746" lon="6.54348">
        <ele>1754.599975586</ele>
        <time>2012-12-31T07:58:59Z</time>
      </trkpt>
      <trkpt lat="44.93756" lon="6.54344">
        <ele>1754.199951172</ele>
        <time>2012-12-31T07:59:00Z</time>
      </trkpt>
      <trkpt lat="44.93789" lon="6.5434">
        <ele>1748.599975586</ele>
        <time>2012-12-31T07:59:03Z</time>
      </trkpt>
      <trkpt lat="44.93799" lon="6.54336">
        <ele>1748.199951172</ele>
        <time>2012-12-31T07:59:04Z</time>
      </trkpt>
      <trkpt lat="44.93819" lon="6.54341">
        <ele>1741.199951172</ele>
        <time>2012-12-31T07:59:06Z</time>
      </trkpt>
      <trkpt lat="44.93841" lon="6.5434">
        <ele>1737.199951172</ele>
        <time>2012-12-31T07:59:08Z</time>
      </trkpt>
      <trkpt lat="44.93873" lon="6.54352">
        <ele>1728.599975586</ele>
        <time>2012-12-31T07:59:11Z</time>
      </trkpt>
      <trkpt lat="44.93892" lon="6.54363">
        <ele>1722.599975586</ele>
        <time>2012-12-31T07:59:13Z</time>
      </trkpt>
      <trkpt lat="44.93929" lon="6.54411">
        <ele>1706</ele>
        <time>2012-12-31T07:59:18Z</time>
      </trkpt>
      <trkpt lat="44.93935" lon="6.54425">
        <ele>1701</ele>
        <time>2012-12-31T07:59:19Z</time>
      </trkpt>
      <trkpt lat="44.93932" lon="6.54492">
        <ele>1678.800048828</ele>
        <time>2012-12-31T07:59:23Z</time>
      </trkpt>
      <trkpt lat="44.93942" lon="6.54514">
        <ele>1671.199951172</ele>
        <time>2012-12-31T07:59:25Z</time>
      </trkpt>
      <trkpt lat="44.93972" lon="6.54527">
        <ele>1665.400024414</ele>
        <time>2012-12-31T07:59:29Z</time>
      </trkpt>
      <trkpt lat="44.93982" lon="6.5455">
        <ele>1657.400024414</ele>
        <time>2012-12-31T07:59:31Z</time>
      </trkpt>
      <trkpt lat="44.93981" lon="6.54595">
        <ele>1642.199951172</ele>
        <time>2012-12-31T07:59:34Z</time>
      </trkpt>
      <trkpt lat="44.93983" lon="6.5461">
        <ele>1637.199951172</ele>
        <time>2012-12-31T07:59:35Z</time>
      </trkpt>
      <trkpt lat="44.93996" lon="6.54633">
        <ele>1628.400024414</ele>
        <time>2012-12-31T07:59:37Z</time>
      </trkpt>
      <trkpt lat="44.94017" lon="6.54638">
        <ele>1625</ele>
        <time>2012-12-31T07:59:39Z</time>
      </trkpt>
      <trkpt lat="44.94046" lon="6.54637">
        <ele>1623.599975586</ele>
        <time>2012-12-31T07:59:41Z</time>
      </trkpt>
      <trkpt lat="44.94079" lon="6.54657">
        <ele>1614</ele>
        <time>2012-12-31T07:59:44Z</time>
      </trkpt>
      <trkpt lat="44.94109" lon="6.54691">
        <ele>1601.599975586</ele>
        <time>2012-12-31T07:59:47Z</time>
      </trkpt>
      <trkpt lat="44.9412" lon="6.54718">
        <ele>1591.800048828</ele>
        <time>2012-12-31T07:59:49Z</time>
      </trkpt>
      <trkpt lat="44.94116" lon="6.54733">
        <ele>1587.199951172</ele>
        <time>2012-12-31T07:59:50Z</time>
      </trkpt>
      <trkpt lat="44.94097" lon="6.54759">
        <ele>1579.599975586</ele>
        <time>2012-12-31T07:59:52Z</time>
      </trkpt>
      <trkpt lat="44.94073" lon="6.54784">
        <ele>1573.599975586</ele>
        <time>2012-12-31T07:59:54Z</time>
      </trkpt>
      <trkpt lat="44.94067" lon="6.54799">
        <ele>1569.599975586</ele>
        <time>2012-12-31T07:59:55Z</time>
      </trkpt>
      <trkpt lat="44.94066" lon="6.54827">
        <ele>1561.400024414</ele>
        <time>2012-12-31T07:59:57Z</time>
      </trkpt>
      <trkpt lat="44.94083" lon="6.54839">
        <ele>1558</ele>
        <time>2012-12-31T07:59:59Z</time>
      </trkpt>
      <trkpt lat="44.94136" lon="6.54837">
        <ele>1550.599975586</ele>
        <time>2012-12-31T08:00:03Z</time>
      </trkpt>
      <trkpt lat="44.94146" lon="6.54833">
        <ele>1550.199951172</ele>
        <time>2012-12-31T08:00:04Z</time>
      </trkpt>
      <trkpt lat="44.942" lon="6.54789">
        <ele>1554.400024414</ele>
        <time>2012-12-31T08:00:10Z</time>
      </trkpt>
      <trkpt lat="44.94234" lon="6.54767">
        <ele>1554.599975586</ele>
        <time>2012-12-31T08:00:14Z</time>
      </trkpt>
      <trkpt lat="44.94253" lon="6.54761">
        <ele>1552.400024414</ele>
        <time>2012-12-31T08:00:16Z</time>
      </trkpt>
      <trkpt lat="44.94274" lon="6.54761">
        <ele>1547.800048828</ele>
        <time>2012-12-31T08:00:18Z</time>
      </trkpt>
      <trkpt lat="44.94305" lon="6.5477">
        <ele>1537.599975586</ele>
        <time>2012-12-31T08:00:21Z</time>
      </trkpt>
      <trkpt lat="44.94327" lon="6.54766">
        <ele>1534.400024414</ele>
        <time>2012-12-31T08:00:23Z</time>
      </trkpt>
      <trkpt lat="44.94346" lon="6.54769">
        <ele>1529</ele>
        <time>2012-12-31T08:00:25Z</time>
      </trkpt>
      <trkpt lat="44.94366" lon="6.54788">
        <ele>1518.400024414</ele>
        <time>2012-12-31T08:00:28Z</time>
      </trkpt>
      <trkpt lat="44.94374" lon="6.54804">
        <ele>1511.800048828</ele>
        <time>2012-12-31T08:00:29Z</time>
      </trkpt>
      <trkpt lat="44.94376" lon="6.54842">
        <ele>1499.400024414</ele>
        <time>2012-12-31T08:00:31Z</time>
      </trkpt>
      <trkpt lat="44.94365" lon="6.54877">
        <ele>1490.400024414</ele>
        <time>2012-12-31T08:00:33Z</time>
      </trkpt>
      <trkpt lat="44.94346" lon="6.54916">
        <ele>1481.400024414</ele>
        <time>2012-12-31T08:00:35Z</time>
      </trkpt>
      <trkpt lat="44.94324" lon="6.5495">
        <ele>1478.599975586</ele>
        <time>2012-12-31T08:00:37Z</time>
      </trkpt>
      <trkpt lat="44.94315" lon="6.54969">
        <ele>1476.599975586</ele>
        <time>2012-12-31T08:00:38Z</time>
      </trkpt>
      <trkpt lat="44.94302" lon="6.55009">
        <ele>1471.400024414</ele>
        <time>2012-12-31T08:00:40Z</time>
      </trkpt>
      <trkpt lat="44.94293" lon="6.55047">
        <ele>1467.599975586</ele>
        <time>2012-12-31T08:00:42Z</time>
      </trkpt>
      <trkpt lat="44.94286" lon="6.55105">
        <ele>1460</ele>
        <time>2012-12-31T08:00:45Z</time>
      </trkpt>
      <trkpt lat="44.94269" lon="6.5516">
        <ele>1453.199951172</ele>
        <time>2012-12-31T08:00:48Z</time>
      </trkpt>
      <trkpt lat="44.9423" lon="6.55204">
        <ele>1453.199951172</ele>
        <time>2012-12-31T08:00:52Z</time>
      </trkpt>
      <trkpt lat="44.94196" lon="6.55269">
        <ele>1450.400024414</ele>
        <time>2012-12-31T08:00:58Z</time>
      </trkpt>
      <trkpt lat="44.94181" lon="6.5531">
        <ele>1446.199951172</ele>
        <time>2012-12-31T08:01:01Z</time>
      </trkpt>
      <trkpt lat="44.94165" lon="6.55336">
        <ele>1444.599975586</ele>
        <time>2012-12-31T08:01:03Z</time>
      </trkpt>
      <trkpt lat="44.94151" lon="6.55363">
        <ele>1447</ele>
        <time>2012-12-31T08:01:05Z</time>
      </trkpt>
      <trkpt lat="44.94142" lon="6.55392">
        <ele>1446.199951172</ele>
        <time>2012-12-31T08:01:07Z</time>
      </trkpt>
      <trkpt lat="44.94137" lon="6.55422">
        <ele>1443.599975586</ele>
        <time>2012-12-31T08:01:09Z</time>
      </trkpt>
      <trkpt lat="44.94134" lon="6.5551">
        <ele>1436.800048828</ele>
        <time>2012-12-31T08:01:15Z</time>
      </trkpt>
      <trkpt lat="44.94117" lon="6.55568">
        <ele>1435.599975586</ele>
        <time>2012-12-31T08:01:20Z</time>
      </trkpt>
      <trkpt lat="44.94113" lon="6.55603">
        <ele>1434</ele>
        <time>2012-12-31T08:01:23Z</time>
      </trkpt>
      <trkpt lat="44.94115" lon="6.55629">
        <ele>1431.800048828</ele>
        <time>2012-12-31T08:01:25Z</time>
      </trkpt>
      <trkpt lat="44.94113" lon="6.55653">
        <ele>1430.400024414</ele>
        <time>2012-12-31T08:01:27Z</time>
      </trkpt>
      <trkpt lat="44.94109" lon="6.55682">
        <ele>1429.599975586</ele>
        <time>2012-12-31T08:01:30Z</time>
      </trkpt>
      <trkpt lat="44.941" lon="6.55714">
        <ele>1429.599975586</ele>
        <time>2012-12-31T08:01:35Z</time>
      </trkpt>
      <trkpt lat="44.94097" lon="6.55762">
        <ele>1428</ele>
        <time>2012-12-31T08:01:44Z</time>
      </trkpt>
      <trkpt lat="44.94092" lon="6.55785">
        <ele>1429</ele>
        <time>2012-12-31T08:01:49Z</time>
      </trkpt>
      <trkpt lat="44.94092" lon="6.55829">
        <ele>1429</ele>
        <time>2012-12-31T08:01:55Z</time>
      </trkpt>
      <trkpt lat="44.94097" lon="6.5585">
        <ele>1429.199951172</ele>
        <time>2012-12-31T08:01:57Z</time>
      </trkpt>
      <trkpt lat="44.9411" lon="6.55867">
        <ele>1427.599975586</ele>
        <time>2012-12-31T08:01:59Z</time>
      </trkpt>
      <trkpt lat="44.94129" lon="6.55902">
        <ele>1424.599975586</ele>
        <time>2012-12-31T08:02:03Z</time>
      </trkpt>
      <trkpt lat="44.94134" lon="6.55917">
        <ele>1423.800048828</ele>
        <time>2012-12-31T08:02:05Z</time>
      </trkpt>
      <trkpt lat="44.94162" lon="6.55962">
        <ele>1417.800048828</ele>
        <time>2012-12-31T08:02:17Z</time>
      </trkpt>
      <trkpt lat="44.94183" lon="6.55987">
        <ele>1415.199951172</ele>
        <time>2012-12-31T08:02:26Z</time>
      </trkpt>
      <trkpt lat="44.94187" lon="6.55995">
        <ele>1415.199951172</ele>
        <time>2012-12-31T08:02:29Z</time>
      </trkpt>
      <trkpt lat="44.9419" lon="6.56016">
        <ele>1415.599975586</ele>
        <time>2012-12-31T08:02:34Z</time>
      </trkpt>
      <trkpt lat="44.94196" lon="6.56024">
        <ele>1415</ele>
        <time>2012-12-31T08:02:37Z</time>
      </trkpt>
      <trkpt lat="44.94202" lon="6.56037">
        <ele>1414.800048828</ele>
        <time>2012-12-31T08:02:42Z</time>
      </trkpt>
      <trkpt lat="44.94215" lon="6.56042">
        <ele>1413.199951172</ele>
        <time>2012-12-31T08:02:45Z</time>
      </trkpt>
      <trkpt lat="44.94252" lon="6.56088">
        <ele>1409.800048828</ele>
        <time>2012-12-31T08:02:54Z</time>
      </trkpt>
      <trkpt lat="44.94281" lon="6.56108">
        <ele>1407.400024414</ele>
        <time>2012-12-31T08:03:00Z</time>
      </trkpt>
      <trkpt lat="44.94291" lon="6.56121">
        <ele>1406.400024414</ele>
        <time>2012-12-31T08:03:03Z</time>
      </trkpt>
      <trkpt lat="44.94307" lon="6.56118">
        <ele>1405.199951172</ele>
        <time>2012-12-31T08:03:06Z</time>
      </trkpt>
      <trkpt lat="44.94307" lon="6.56133">
        <ele>1405</ele>
        <time>2012-12-31T08:03:15Z</time>
      </trkpt>
      <trkpt lat="44.94308" lon="6.56127">
        <ele>1405</ele>
        <time>2012-12-31T08:03:39Z</time>
      </trkpt>
      <trkpt lat="44.94312" lon="6.56124">
        <ele>1404.800048828</ele>
        <time>2012-12-31T08:03:55Z</time>
      </trkpt>
      <trkpt lat="44.94308" lon="6.56119">
        <ele>1405.199951172</ele>
        <time>2012-12-31T08:04:00Z</time>
      </trkpt>
      <trkpt lat="44.94311" lon="6.56122">
        <ele>1404.800048828</ele>
        <time>2012-12-31T08:04:11Z</time>
      </trkpt>
      <trkpt lat="44.94311" lon="6.5613">
        <ele>1404.599975586</ele>
        <time>2012-12-31T08:04:16Z</time>
      </trkpt>
      <trkpt lat="44.94322" lon="6.56137">
        <ele>1403.599975586</ele>
        <time>2012-12-31T08:04:23Z</time>
      </trkpt>
      <trkpt lat="44.94319" lon="6.56134">
        <ele>1404</ele>
        <time>2012-12-31T08:04:28Z</time>
      </trkpt>
      <trkpt lat="44.94315" lon="6.56139">
        <ele>1404.199951172</ele>
        <time>2012-12-31T08:04:39Z</time>
      </trkpt>
      <trkpt lat="44.94314" lon="6.56134">
        <ele>1404.400024414</ele>
        <time>2012-12-31T08:04:45Z</time>
      </trkpt>
      <trkpt lat="44.94315" lon="6.56139">
        <ele>1404.199951172</ele>
        <time>2012-12-31T08:04:57Z</time>
      </trkpt>
      <trkpt lat="44.94313" lon="6.56129">
        <ele>1404.599975586</ele>
        <time>2012-12-31T08:05:09Z</time>
      </trkpt>
      <trkpt lat="44.94305" lon="6.56115">
        <ele>1405.400024414</ele>
        <time>2012-12-31T08:05:20Z</time>
      </trkpt>
      <trkpt lat="44.94308" lon="6.56118">
        <ele>1405.199951172</ele>
        <time>2012-12-31T08:05:27Z</time>
      </trkpt>
      <trkpt lat="44.94306" lon="6.56114">
        <ele>1405.400024414</ele>
        <time>2012-12-31T08:05:35Z</time>
      </trkpt>
      <trkpt lat="44.94309" lon="6.56126">
        <ele>1405</ele>
        <time>2012-12-31T08:05:47Z</time>
      </trkpt>
      <trkpt lat="44.94312" lon="6.56131">
        <ele>1404.599975586</ele>
        <time>2012-12-31T08:05:51Z</time>
      </trkpt>
      <trkpt lat="44.94305" lon="6.56101">
        <ele>1405.599975586</ele>
        <time>2012-12-31T08:06:19Z</time>
      </trkpt>
      <trkpt lat="44.94308" lon="6.56105">
        <ele>1405.400024414</ele>
        <time>2012-12-31T08:06:24Z</time>
      </trkpt>
      <trkpt lat="44.94306" lon="6.56106">
        <ele>1405.599975586</ele>
        <time>2012-12-31T08:06:28Z</time>
      </trkpt>
      <trkpt lat="44.94303" lon="6.56098">
        <ele>1405.800048828</ele>
        <time>2012-12-31T08:06:37Z</time>
      </trkpt>
      <trkpt lat="44.94304" lon="6.56096">
        <ele>1405.800048828</ele>
        <time>2012-12-31T08:06:44Z</time>
      </trkpt>
      <trkpt lat="44.94304" lon="6.56101">
        <ele>1405.800048828</ele>
        <time>2012-12-31T08:06:56Z</time>
      </trkpt>
      <trkpt lat="44.9431" lon="6.5611">
        <ele>1405.199951172</ele>
        <time>2012-12-31T08:07:01Z</time>
      </trkpt>
      <trkpt lat="44.94315" lon="6.56125">
        <ele>1404.400024414</ele>
        <time>2012-12-31T08:07:06Z</time>
      </trkpt>
      <trkpt lat="44.94306" lon="6.56128">
        <ele>1405.199951172</ele>
        <time>2012-12-31T08:07:20Z</time>
      </trkpt>
      <trkpt lat="44.94322" lon="6.5613">
        <ele>1403.800048828</ele>
        <time>2012-12-31T08:07:54Z</time>
      </trkpt>
      <trkpt lat="44.94323" lon="6.56133">
        <ele>1403.599975586</ele>
        <time>2012-12-31T08:07:59Z</time>
      </trkpt>
      <trkpt lat="44.94333" lon="6.56133">
        <ele>1402.800048828</ele>
        <time>2012-12-31T08:08:05Z</time>
      </trkpt>
      <trkpt lat="44.94333" lon="6.5613">
        <ele>1402.800048828</ele>
        <time>2012-12-31T08:08:09Z</time>
      </trkpt>
      <trkpt lat="44.94314" lon="6.56129">
        <ele>1404.400024414</ele>
        <time>2012-12-31T08:08:24Z</time>
      </trkpt>
      <trkpt lat="44.94313" lon="6.56133">
        <ele>1404.400024414</ele>
        <time>2012-12-31T08:08:31Z</time>
      </trkpt>
      <trkpt lat="44.94313" lon="6.56126">
        <ele>1404.599975586</ele>
        <time>2012-12-31T08:08:35Z</time>
      </trkpt>
      <trkpt lat="44.9432" lon="6.56132">
        <ele>1403.800048828</ele>
        <time>2012-12-31T08:08:46Z</time>
      </trkpt>
      <trkpt lat="44.94319" lon="6.56134">
        <ele>1404</ele>
        <time>2012-12-31T08:08:49Z</time>
      </trkpt>
      <trkpt lat="44.94323" lon="6.5613">
        <ele>1403.599975586</ele>
        <time>2012-12-31T08:08:56Z</time>
      </trkpt>
      <trkpt lat="44.94316" lon="6.56154">
        <ele>1403.800048828</ele>
        <time>2012-12-31T08:09:12Z</time>
      </trkpt>
      <trkpt lat="44.94318" lon="6.5615">
        <ele>1403.599975586</ele>
        <time>2012-12-31T08:09:14Z</time>
      </trkpt>
    </trkseg>
  </trk>
</gpx>